createdAt,value
2023-05-18T00:04:04.390Z,99.90
2023-05-18T00:09:06.186Z,99.90
2023-05-18T00:14:08.285Z,99.90
2023-05-18T00:19:15.643Z,99.90
2023-05-18T00:24:17.555Z,99.90
2023-05-18T00:29:19.299Z,99.90
2023-05-18T00:34:21.231Z,99.90
2023-05-18T00:39:22.976Z,99.90
2023-05-18T00:44:24.841Z,99.90
2023-05-18T00:49:26.962Z,99.90
2023-05-18T00:54:28.668Z,99.90
2023-05-18T00:59:30.686Z,99.90
2023-05-18T01:04:32.375Z,99.90
2023-05-18T01:09:34.682Z,99.90
2023-05-18T01:14:45.660Z,99.90
2023-05-18T01:20:00.192Z,99.90
2023-05-18T01:25:10.766Z,99.90
2023-05-18T01:30:16.173Z,99.90
2023-05-18T01:35:17.779Z,99.90
2023-05-18T01:40:19.551Z,99.90
2023-05-18T01:45:24.910Z,99.90
2023-05-18T01:50:31.323Z,99.90
2023-05-18T01:55:33.244Z,99.90
2023-05-18T02:00:35.553Z,99.90
2023-05-18T02:05:37.387Z,99.90
2023-05-18T02:10:39.044Z,99.90
2023-05-18T02:15:40.987Z,99.90
2023-05-18T02:20:42.902Z,99.90
2023-05-18T02:25:44.565Z,99.90
2023-05-18T02:30:46.349Z,99.90
2023-05-18T02:35:48.043Z,99.90
2023-05-18T02:40:49.796Z,99.90
2023-05-18T02:45:51.489Z,99.90
2023-05-18T02:50:53.850Z,99.90
2023-05-18T02:55:58.582Z,99.90
2023-05-18T03:01:00.456Z,99.90
2023-05-18T03:06:05.450Z,99.90
2023-05-18T03:11:07.115Z,99.90
2023-05-18T03:16:08.915Z,99.90
2023-05-18T03:21:13.539Z,99.90
2023-05-18T03:26:16.708Z,99.90
2023-05-18T03:31:18.429Z,99.90
2023-05-18T03:36:22.447Z,99.90
2023-05-18T03:41:24.223Z,99.90
2023-05-18T03:46:25.972Z,99.90
2023-05-18T03:51:29.099Z,99.90
2023-05-18T03:56:31.673Z,99.90
2023-05-18T04:01:33.849Z,99.90
2023-05-18T04:06:35.532Z,99.90
2023-05-18T04:11:37.192Z,99.90
2023-05-18T04:16:38.972Z,99.90
2023-05-18T04:21:43.557Z,99.90
2023-05-18T04:26:46.545Z,99.90
2023-05-18T04:31:48.816Z,99.90
2023-05-18T04:36:50.545Z,99.90
2023-05-18T04:41:58.550Z,99.90
2023-05-18T04:47:00.501Z,99.90
2023-05-18T04:52:02.202Z,99.90
2023-05-18T04:57:04.202Z,99.90
2023-05-18T05:02:05.937Z,99.90
2023-05-18T05:07:07.619Z,99.90
2023-05-18T05:12:09.622Z,99.90
2023-05-18T05:17:12.602Z,99.90
2023-05-18T05:22:14.706Z,99.90
2023-05-18T05:27:17.424Z,99.90
2023-05-18T05:32:19.174Z,99.90
2023-05-18T05:37:22.043Z,99.90
2023-05-18T05:42:25.472Z,99.90
2023-05-18T05:47:28.256Z,99.90
2023-05-18T05:52:30.073Z,99.90
2023-05-18T05:57:31.790Z,99.90
2023-05-18T06:02:34.296Z,99.90
2023-05-18T06:07:36.569Z,99.90
2023-05-18T06:12:38.269Z,99.90
2023-05-18T06:17:40.170Z,99.90
2023-05-18T06:22:41.951Z,99.90
2023-05-18T06:27:44.443Z,99.90
2023-05-18T06:32:46.149Z,99.90
2023-05-18T06:37:47.876Z,99.90
2023-05-18T06:42:49.652Z,99.90
2023-05-18T06:47:51.433Z,99.90
2023-05-18T06:52:53.411Z,99.90
2023-05-18T06:57:58.357Z,99.90
2023-05-18T07:03:00.260Z,99.90
2023-05-18T07:08:03.313Z,99.90
2023-05-18T07:13:05.148Z,99.90
2023-05-18T07:18:06.893Z,99.90
2023-05-18T07:23:08.654Z,99.90
2023-05-18T07:28:10.567Z,99.90
2023-05-18T07:33:12.332Z,99.90
2023-05-18T07:38:14.067Z,99.90
2023-05-18T07:43:15.765Z,99.90
2023-05-18T07:48:17.630Z,99.90
2023-05-18T07:53:19.329Z,99.90
2023-05-18T07:58:21.060Z,99.90
2023-05-18T08:03:22.839Z,99.90
2023-05-18T08:08:24.558Z,99.90
2023-05-18T08:13:26.724Z,99.90
2023-05-18T08:18:28.528Z,99.90
2023-05-18T08:23:30.506Z,99.90
2023-05-18T08:28:32.373Z,99.90
2023-05-18T08:33:34.307Z,99.90
2023-05-18T08:38:36.078Z,99.90
2023-05-18T08:43:38.560Z,99.90
2023-05-18T08:48:42.670Z,99.90
2023-05-18T08:53:44.898Z,99.90
2023-05-18T08:58:48.461Z,99.90
2023-05-18T09:03:50.644Z,99.90
2023-05-18T09:08:57.637Z,99.90
2023-05-18T09:13:59.972Z,99.90
2023-05-18T09:19:01.957Z,99.90
2023-05-18T09:24:03.789Z,99.90
2023-05-18T09:29:17.086Z,99.90
2023-05-18T09:34:19.366Z,99.90
2023-05-18T09:39:21.346Z,99.90
2023-05-18T09:44:33.884Z,99.90
2023-05-18T09:49:35.853Z,99.90
2023-05-18T09:54:37.847Z,97.90
2023-05-18T09:59:39.537Z,98.60
2023-05-18T10:04:42.500Z,99.90
2023-05-18T10:09:45.229Z,99.10
2023-05-18T10:14:46.994Z,99.40
2023-05-18T10:19:51.394Z,97.60
2023-05-18T10:24:53.180Z,97.60
2023-05-18T10:29:58.204Z,94.80
2023-05-18T10:34:59.959Z,95.60
2023-05-18T10:40:03.069Z,94.90
2023-05-18T10:45:06.258Z,94.10
2023-05-18T10:50:08.623Z,92.10
2023-05-18T10:55:10.543Z,93.30
2023-05-18T11:00:12.429Z,93.70
2023-05-18T11:05:14.297Z,92.40
2023-05-18T11:10:16.210Z,93.00
2023-05-18T11:15:19.531Z,93.10
2023-05-18T11:20:25.027Z,92.60
2023-05-18T11:25:32.434Z,93.00
2023-05-18T11:30:34.293Z,94.60
2023-05-18T11:35:54.541Z,91.80
2023-05-18T11:40:58.251Z,91.40
2023-05-18T11:45:59.974Z,90.10
2023-05-18T11:51:01.650Z,92.70
2023-05-18T11:56:03.476Z,89.90
2023-05-18T12:01:06.710Z,90.40
2023-05-18T12:06:08.517Z,90.10
2023-05-18T12:11:10.454Z,89.80
2023-05-18T12:16:13.316Z,87.80
2023-05-18T12:21:16.993Z,88.80
2023-05-18T12:26:20.509Z,89.10
2023-05-18T12:31:22.619Z,83.50
2023-05-18T12:36:24.424Z,83.30
2023-05-18T12:41:29.128Z,82.90
2023-05-18T12:46:30.953Z,86.20
2023-05-18T12:51:33.688Z,83.80
2023-05-18T12:57:01.512Z,85.30
2023-05-18T13:02:04.230Z,84.90
2023-05-18T13:07:12.210Z,87.20
2023-05-18T13:12:13.899Z,84.80
2023-05-18T13:17:22.030Z,84.00
2023-05-18T13:22:23.771Z,81.30
2023-05-18T13:27:28.980Z,86.20
2023-05-18T13:32:33.308Z,82.40
2023-05-18T13:37:35.418Z,80.80
2023-05-18T13:42:37.219Z,82.10
2023-05-18T13:47:39.495Z,82.50
2023-05-18T13:52:41.200Z,82.00
2023-05-18T13:57:43.275Z,80.70
2023-05-18T14:02:45.106Z,80.20
2023-05-18T14:07:46.914Z,80.20
2023-05-18T14:12:48.950Z,79.80
2023-05-18T14:17:56.491Z,80.90
2023-05-18T14:23:00.258Z,78.90
2023-05-18T14:28:02.094Z,80.20
2023-05-18T14:33:04.149Z,79.00
2023-05-18T14:38:07.986Z,80.20
2023-05-18T14:43:10.669Z,80.60
2023-05-18T14:48:12.506Z,76.60
2023-05-18T14:53:16.149Z,78.20
2023-05-18T14:58:17.851Z,78.10
2023-05-18T15:03:21.671Z,78.60
2023-05-18T15:08:23.538Z,76.40
2023-05-18T15:13:26.261Z,77.20
2023-05-18T15:18:33.008Z,76.30
2023-05-18T15:23:34.716Z,79.80
2023-05-18T15:28:36.381Z,75.50
2023-05-18T15:33:42.373Z,77.80
2023-05-18T15:38:45.053Z,76.40
2023-05-18T15:43:46.800Z,76.50
2023-05-18T15:48:49.609Z,76.40
2023-05-18T15:53:51.263Z,74.70
2023-05-18T15:58:53.975Z,75.30
2023-05-18T16:03:55.687Z,77.00
2023-05-18T16:08:57.585Z,76.20
2023-05-18T16:14:00.433Z,78.00
2023-05-18T16:19:03.203Z,75.60
2023-05-18T16:24:05.633Z,74.90
2023-05-18T16:29:07.331Z,74.00
2023-05-18T16:34:08.981Z,77.60
2023-05-18T16:39:11.693Z,79.70
2023-05-18T16:44:14.389Z,81.30
2023-05-18T16:49:16.100Z,81.70
2023-05-18T16:54:17.766Z,78.50
2023-05-18T16:59:20.310Z,78.00
2023-05-18T17:04:24.061Z,80.40
2023-05-18T17:09:25.862Z,83.80
2023-05-18T17:14:27.568Z,84.40
2023-05-18T17:19:29.270Z,85.70
2023-05-18T17:24:31.260Z,82.90
2023-05-18T17:29:32.956Z,87.20
2023-05-18T17:34:34.737Z,88.20
2023-05-18T17:39:38.513Z,89.50
2023-05-18T17:44:41.351Z,90.70
2023-05-18T17:49:43.168Z,91.40
2023-05-18T17:54:44.889Z,92.10
2023-05-18T17:59:47.580Z,92.10
2023-05-18T18:04:49.329Z,94.10
2023-05-18T18:09:51.072Z,93.80
2023-05-18T18:14:53.823Z,94.30
2023-05-18T18:19:56.462Z,95.40
2023-05-18T18:24:58.331Z,94.80
2023-05-18T18:30:00.057Z,95.20
2023-05-18T18:35:07.100Z,95.50
2023-05-18T18:40:09.460Z,96.20
2023-05-18T18:45:12.253Z,97.50
2023-05-18T18:50:13.898Z,98.10
2023-05-18T18:55:17.086Z,99.90
2023-05-18T19:00:21.528Z,99.90
2023-05-18T19:05:25.335Z,99.90
2023-05-18T19:10:27.688Z,99.90
2023-05-18T19:15:29.827Z,99.90
2023-05-18T19:20:34.848Z,99.90
2023-05-18T19:25:36.541Z,99.90
2023-05-18T19:30:38.265Z,99.90
2023-05-18T19:35:40.100Z,99.90
2023-05-18T19:40:41.715Z,99.90
2023-05-18T19:45:43.552Z,99.90
2023-05-18T19:50:45.530Z,99.90
2023-05-18T19:55:48.797Z,99.90
2023-05-18T20:00:52.720Z,99.90
2023-05-18T20:05:55.447Z,99.90
2023-05-18T20:10:57.157Z,99.90
2023-05-18T20:15:59.047Z,99.90
2023-05-18T20:21:01.157Z,99.90
2023-05-18T20:26:02.924Z,99.90
2023-05-18T20:31:04.679Z,99.90
2023-05-18T20:36:06.717Z,99.90
2023-05-18T20:41:17.771Z,99.90
2023-05-18T20:46:23.807Z,99.90
2023-05-18T20:51:25.797Z,99.90
2023-05-18T20:56:29.421Z,99.90
2023-05-18T21:01:32.244Z,99.90
2023-05-18T21:06:34.521Z,99.90
2023-05-18T21:11:38.070Z,99.90
2023-05-18T21:16:40.449Z,99.90
2023-05-18T21:21:43.362Z,99.90
2023-05-18T21:26:45.027Z,99.90
2023-05-18T21:31:46.891Z,99.90
2023-05-18T21:36:48.621Z,99.90
2023-05-18T21:41:50.414Z,99.90
2023-05-18T21:46:55.333Z,99.90
2023-05-18T21:51:58.077Z,99.90
2023-05-18T21:56:59.872Z,99.90
2023-05-18T22:02:02.624Z,99.90
2023-05-18T22:07:04.965Z,99.90
2023-05-18T22:12:06.921Z,99.90
2023-05-18T22:17:08.769Z,99.90
2023-05-18T22:22:16.523Z,99.90
2023-05-18T22:27:22.236Z,99.90
2023-05-18T22:32:24.069Z,99.90
2023-05-18T22:37:26.207Z,99.90
2023-05-18T22:42:27.989Z,99.90
2023-05-18T22:47:30.160Z,99.90
2023-05-18T22:52:32.460Z,99.90
2023-05-18T22:57:34.227Z,99.90
2023-05-18T23:02:36.427Z,99.90
2023-05-18T23:07:38.425Z,99.90
2023-05-18T23:12:40.276Z,99.90
2023-05-18T23:17:42.298Z,99.90
2023-05-18T23:22:44.208Z,99.90
2023-05-18T23:27:46.912Z,99.90
2023-05-18T23:32:48.943Z,99.90
2023-05-18T23:37:53.648Z,99.90
2023-05-18T23:42:55.632Z,99.90
2023-05-18T23:47:57.670Z,99.90
2023-05-18T23:53:00.613Z,99.90
2023-05-18T23:58:02.620Z,99.90
